Kellogg, Idaho
Current Conditions -  °F | °C
As of 8:45 AM on Friday 19 Dec 2014 (Local Time) from KMLP Reporting Station
Moderate Snow Moderate Snow  
Wind Chill: 32°   Ceiling: 200
Heat Index: 32°   Visibility: 0.25mi
Dew Point: 29°   Wind: 3mph
Humidity: 88%   Direction: NA
Pressure: 29.84"   Gusts: NA
Location:  47.54°N, 116.12°W
Report Text: KMLP 191645Z AUTO VRB03KT 1/4SM SN FG VV002 00/M02 A2984 RMK AO2 P0003 T00001017
Loading
Personal Weather Stations






























Interactive Weather Map New forecast layout! Learn more

10-Day Weather Forecast

Advertisements
Track Severe Weather on mobile